sensor_id;sensor_type;location;lat;lon;timestamp;P1;durP1;ratioP1;P2;durP2;ratioP2
66402;SDS011;53212;52.112;5.144;2024-02-14T00:01:05;4.90;;;4.50;;
66402;SDS011;53212;52.112;5.144;2024-02-14T00:03:34;4.40;;;4.10;;
66402;SDS011;53212;52.112;5.144;2024-02-14T00:06:00;5.20;;;4.50;;
66402;SDS011;53212;52.112;5.144;2024-02-14T00:08:25;4.30;;;4.00;;
66402;SDS011;53212;52.112;5.144;2024-02-14T00:10:51;5.00;;;4.60;;
66402;SDS011;53212;52.112;5.144;2024-02-14T00:13:16;5.20;;;4.70;;
66402;SDS011;53212;52.112;5.144;2024-02-14T00:15:45;5.20;;;4.70;;
66402;SDS011;53212;52.112;5.144;2024-02-14T00:18:14;5.30;;;4.80;;
66402;SDS011;53212;52.112;5.144;2024-02-14T00:20:42;5.60;;;5.20;;
66402;SDS011;53212;52.112;5.144;2024-02-14T00:23:09;5.70;;;5.20;;
66402;SDS011;53212;52.112;5.144;2024-02-14T00:25:34;5.60;;;5.20;;
66402;SDS011;53212;52.112;5.144;2024-02-14T00:28:00;5.70;;;5.20;;
66402;SDS011;53212;52.112;5.144;2024-02-14T00:30:26;6.10;;;5.50;;
66402;SDS011;53212;52.112;5.144;2024-02-14T00:32:52;6.60;;;5.70;;
66402;SDS011;53212;52.112;5.144;2024-02-14T00:35:17;5.60;;;5.10;;
66402;SDS011;53212;52.112;5.144;2024-02-14T00:37:43;5.30;;;4.80;;
66402;SDS011;53212;52.112;5.144;2024-02-14T00:40:08;5.70;;;5.30;;
66402;SDS011;53212;52.112;5.144;2024-02-14T00:42:35;6.20;;;5.70;;
66402;SDS011;53212;52.112;5.144;2024-02-14T00:45:01;6.00;;;5.50;;
66402;SDS011;53212;52.112;5.144;2024-02-14T00:47:28;6.40;;;5.80;;
66402;SDS011;53212;52.112;5.144;2024-02-14T00:49:53;6.90;;;6.20;;
66402;SDS011;53212;52.112;5.144;2024-02-14T00:52:19;6.80;;;6.20;;
66402;SDS011;53212;52.112;5.144;2024-02-14T00:54:47;6.50;;;6.00;;
66402;SDS011;53212;52.112;5.144;2024-02-14T00:57:12;7.70;;;7.00;;
66402;SDS011;53212;52.112;5.144;2024-02-14T00:59:38;6.30;;;5.70;;
66402;SDS011;53212;52.112;5.144;2024-02-14T01:02:04;6.80;;;6.10;;
66402;SDS011;53212;52.112;5.144;2024-02-14T01:04:29;7.10;;;6.40;;
66402;SDS011;53212;52.112;5.144;2024-02-14T01:06:55;7.50;;;6.90;;
66402;SDS011;53212;52.112;5.144;2024-02-14T01:09:20;6.90;;;6.30;;
66402;SDS011;53212;52.112;5.144;2024-02-14T01:11:47;6.40;;;5.90;;
66402;SDS011;53212;52.112;5.144;2024-02-14T01:14:14;7.10;;;6.30;;
66402;SDS011;53212;52.112;5.144;2024-02-14T01:16:43;7.40;;;6.70;;
66402;SDS011;53212;52.112;5.144;2024-02-14T01:19:10;7.10;;;5.90;;
66402;SDS011;53212;52.112;5.144;2024-02-14T01:21:36;6.70;;;6.10;;
66402;SDS011;53212;52.112;5.144;2024-02-14T01:24:01;6.50;;;6.00;;
66402;SDS011;53212;52.112;5.144;2024-02-14T01:26:28;7.60;;;6.50;;
66402;SDS011;53212;52.112;5.144;2024-02-14T01:28:53;7.10;;;6.50;;
66402;SDS011;53212;52.112;5.144;2024-02-14T01:31:18;7.40;;;6.80;;
66402;SDS011;53212;52.112;5.144;2024-02-14T01:33:45;8.10;;;7.30;;
66402;SDS011;53212;52.112;5.144;2024-02-14T01:36:11;7.10;;;6.50;;
66402;SDS011;53212;52.112;5.144;2024-02-14T01:38:36;7.90;;;7.10;;
66402;SDS011;53212;52.112;5.144;2024-02-14T01:41:05;7.50;;;6.80;;
66402;SDS011;53212;52.112;5.144;2024-02-14T01:43:31;7.70;;;7.00;;
66402;SDS011;53212;52.112;5.144;2024-02-14T01:46:06;8.00;;;7.20;;
66402;SDS011;53212;52.112;5.144;2024-02-14T01:48:35;7.80;;;7.00;;
66402;SDS011;53212;52.112;5.144;2024-02-14T01:51:04;7.90;;;7.10;;
66402;SDS011;53212;52.112;5.144;2024-02-14T01:53:34;8.30;;;7.60;;
66402;SDS011;53212;52.112;5.144;2024-02-14T01:56:02;8.30;;;7.20;;
66402;SDS011;53212;52.112;5.144;2024-02-14T01:58:30;7.60;;;7.00;;
66402;SDS011;53212;52.112;5.144;2024-02-14T02:00:56;7.40;;;6.70;;
66402;SDS011;53212;52.112;5.144;2024-02-14T02:03:24;8.40;;;7.60;;
66402;SDS011;53212;52.112;5.144;2024-02-14T02:05:51;7.90;;;7.10;;
66402;SDS011;53212;52.112;5.144;2024-02-14T02:08:19;7.90;;;7.20;;
66402;SDS011;53212;52.112;5.144;2024-02-14T02:10:46;7.80;;;7.00;;
66402;SDS011;53212;52.112;5.144;2024-02-14T02:13:12;8.10;;;7.30;;
66402;SDS011;53212;52.112;5.144;2024-02-14T02:15:37;8.40;;;7.60;;
66402;SDS011;53212;52.112;5.144;2024-02-14T02:18:04;7.40;;;6.80;;
66402;SDS011;53212;52.112;5.144;2024-02-14T02:20:32;7.60;;;7.00;;
66402;SDS011;53212;52.112;5.144;2024-02-14T02:22:58;7.50;;;6.70;;
66402;SDS011;53212;52.112;5.144;2024-02-14T02:25:25;7.30;;;6.70;;
66402;SDS011;53212;52.112;5.144;2024-02-14T02:27:52;8.20;;;7.60;;
66402;SDS011;53212;52.112;5.144;2024-02-14T02:30:22;9.50;;;8.00;;
66402;SDS011;53212;52.112;5.144;2024-02-14T02:32:47;8.30;;;7.70;;
66402;SDS011;53212;52.112;5.144;2024-02-14T02:35:13;8.50;;;7.80;;
66402;SDS011;53212;52.112;5.144;2024-02-14T02:37:39;8.10;;;7.30;;
66402;SDS011;53212;52.112;5.144;2024-02-14T02:40:05;8.60;;;7.90;;
66402;SDS011;53212;52.112;5.144;2024-02-14T02:42:32;8.30;;;7.60;;
66402;SDS011;53212;52.112;5.144;2024-02-14T02:44:58;8.20;;;7.60;;
66402;SDS011;53212;52.112;5.144;2024-02-14T02:47:23;7.60;;;6.90;;
66402;SDS011;53212;52.112;5.144;2024-02-14T02:49:48;8.10;;;7.40;;
66402;SDS011;53212;52.112;5.144;2024-02-14T02:52:14;7.50;;;6.80;;
66402;SDS011;53212;52.112;5.144;2024-02-14T02:54:39;8.10;;;7.50;;
66402;SDS011;53212;52.112;5.144;2024-02-14T02:57:07;7.50;;;6.90;;
66402;SDS011;53212;52.112;5.144;2024-02-14T02:59:34;7.30;;;6.70;;
66402;SDS011;53212;52.112;5.144;2024-02-14T03:02:00;7.60;;;7.00;;
66402;SDS011;53212;52.112;5.144;2024-02-14T03:04:26;7.60;;;7.00;;
66402;SDS011;53212;52.112;5.144;2024-02-14T03:06:51;7.60;;;7.00;;
66402;SDS011;53212;52.112;5.144;2024-02-14T03:09:17;8.40;;;7.70;;
66402;SDS011;53212;52.112;5.144;2024-02-14T03:11:46;8.00;;;7.20;;
66402;SDS011;53212;52.112;5.144;2024-02-14T03:14:15;8.00;;;7.20;;
66402;SDS011;53212;52.112;5.144;2024-02-14T03:16:40;10.70;;;8.70;;
66402;SDS011;53212;52.112;5.144;2024-02-14T03:19:06;8.80;;;8.00;;
66402;SDS011;53212;52.112;5.144;2024-02-14T03:21:32;8.70;;;8.00;;
66402;SDS011;53212;52.112;5.144;2024-02-14T03:24:03;9.20;;;8.40;;
66402;SDS011;53212;52.112;5.144;2024-02-14T03:26:31;9.30;;;8.50;;
66402;SDS011;53212;52.112;5.144;2024-02-14T03:29:00;9.60;;;8.50;;
66402;SDS011;53212;52.112;5.144;2024-02-14T03:31:26;9.30;;;8.30;;
66402;SDS011;53212;52.112;5.144;2024-02-14T03:33:51;9.70;;;8.60;;
66402;SDS011;53212;52.112;5.144;2024-02-14T03:36:18;10.60;;;9.40;;
66402;SDS011;53212;52.112;5.144;2024-02-14T03:38:44;11.50;;;10.00;;
66402;SDS011;53212;52.112;5.144;2024-02-14T03:41:11;12.00;;;8.80;;
66402;SDS011;53212;52.112;5.144;2024-02-14T03:43:38;12.20;;;10.50;;
66402;SDS011;53212;52.112;5.144;2024-02-14T03:46:04;10.00;;;8.60;;
66402;SDS011;53212;52.112;5.144;2024-02-14T03:48:30;12.00;;;9.40;;
66402;SDS011;53212;52.112;5.144;2024-02-14T03:50:56;10.80;;;8.60;;
66402;SDS011;53212;52.112;5.144;2024-02-14T03:53:25;13.50;;;9.00;;
66402;SDS011;53212;52.112;5.144;2024-02-14T03:55:51;13.60;;;9.40;;
66402;SDS011;53212;52.112;5.144;2024-02-14T03:58:18;11.80;;;8.80;;
66402;SDS011;53212;52.112;5.144;2024-02-14T04:00:50;10.20;;;9.10;;
66402;SDS011;53212;52.112;5.144;2024-02-14T04:03:17;13.10;;;9.40;;
66402;SDS011;53212;52.112;5.144;2024-02-14T04:05:43;12.20;;;8.70;;
66402;SDS011;53212;52.112;5.144;2024-02-14T04:08:08;10.90;;;8.80;;
66402;SDS011;53212;52.112;5.144;2024-02-14T04:10:39;15.00;;;9.60;;
66402;SDS011;53212;52.112;5.144;2024-02-14T04:13:04;16.80;;;9.10;;
66402;SDS011;53212;52.112;5.144;2024-02-14T04:15:31;16.50;;;9.10;;
66402;SDS011;53212;52.112;5.144;2024-02-14T04:17:57;14.70;;;9.50;;
66402;SDS011;53212;52.112;5.144;2024-02-14T04:20:25;13.20;;;8.30;;
66402;SDS011;53212;52.112;5.144;2024-02-14T04:22:51;17.90;;;9.40;;
66402;SDS011;53212;52.112;5.144;2024-02-14T04:25:16;12.20;;;8.30;;
66402;SDS011;53212;52.112;5.144;2024-02-14T04:27:42;11.30;;;8.80;;
66402;SDS011;53212;52.112;5.144;2024-02-14T04:30:08;10.50;;;8.50;;
66402;SDS011;53212;52.112;5.144;2024-02-14T04:32:34;11.60;;;8.60;;
66402;SDS011;53212;52.112;5.144;2024-02-14T04:34:59;14.20;;;9.10;;
66402;SDS011;53212;52.112;5.144;2024-02-14T04:37:25;13.10;;;8.70;;
66402;SDS011;53212;52.112;5.144;2024-02-14T04:39:51;10.80;;;8.80;;
66402;SDS011;53212;52.112;5.144;2024-02-14T04:42:16;11.80;;;8.90;;
66402;SDS011;53212;52.112;5.144;2024-02-14T04:44:42;12.10;;;8.40;;
66402;SDS011;53212;52.112;5.144;2024-02-14T04:47:09;14.00;;;8.30;;
66402;SDS011;53212;52.112;5.144;2024-02-14T04:49:37;13.30;;;8.40;;
66402;SDS011;53212;52.112;5.144;2024-02-14T04:52:03;12.80;;;9.20;;
66402;SDS011;53212;52.112;5.144;2024-02-14T04:54:30;13.10;;;9.30;;
66402;SDS011;53212;52.112;5.144;2024-02-14T04:56:55;11.90;;;9.10;;
66402;SDS011;53212;52.112;5.144;2024-02-14T04:59:21;11.20;;;9.30;;
66402;SDS011;53212;52.112;5.144;2024-02-14T05:01:46;11.20;;;8.60;;
66402;SDS011;53212;52.112;5.144;2024-02-14T05:04:12;11.60;;;8.80;;
66402;SDS011;53212;52.112;5.144;2024-02-14T05:06:38;11.50;;;9.10;;
66402;SDS011;53212;52.112;5.144;2024-02-14T05:09:05;11.80;;;8.50;;
66402;SDS011;53212;52.112;5.144;2024-02-14T05:11:31;10.90;;;8.80;;
66402;SDS011;53212;52.112;5.144;2024-02-14T05:13:56;14.70;;;9.40;;
66402;SDS011;53212;52.112;5.144;2024-02-14T05:16:22;11.60;;;9.20;;
66402;SDS011;53212;52.112;5.144;2024-02-14T05:18:48;12.30;;;8.80;;
66402;SDS011;53212;52.112;5.144;2024-02-14T05:21:14;12.10;;;8.70;;
66402;SDS011;53212;52.112;5.144;2024-02-14T05:23:40;10.40;;;9.20;;
66402;SDS011;53212;52.112;5.144;2024-02-14T05:26:05;12.40;;;9.40;;
66402;SDS011;53212;52.112;5.144;2024-02-14T05:28:31;12.70;;;8.50;;
66402;SDS011;53212;52.112;5.144;2024-02-14T05:30:57;10.20;;;7.80;;
66402;SDS011;53212;52.112;5.144;2024-02-14T05:33:24;9.60;;;8.20;;
66402;SDS011;53212;52.112;5.144;2024-02-14T05:35:50;8.60;;;7.50;;
66402;SDS011;53212;52.112;5.144;2024-02-14T05:38:16;8.90;;;7.70;;
66402;SDS011;53212;52.112;5.144;2024-02-14T05:40:45;9.20;;;7.70;;
66402;SDS011;53212;52.112;5.144;2024-02-14T05:43:11;9.30;;;7.90;;
66402;SDS011;53212;52.112;5.144;2024-02-14T05:45:37;9.50;;;7.60;;
66402;SDS011;53212;52.112;5.144;2024-02-14T05:48:03;8.80;;;7.90;;
66402;SDS011;53212;52.112;5.144;2024-02-14T05:50:29;8.50;;;7.60;;
66402;SDS011;53212;52.112;5.144;2024-02-14T05:52:54;8.00;;;7.30;;
66402;SDS011;53212;52.112;5.144;2024-02-14T05:55:22;8.70;;;7.90;;
66402;SDS011;53212;52.112;5.144;2024-02-14T05:57:48;9.90;;;9.00;;
66402;SDS011;53212;52.112;5.144;2024-02-14T06:00:14;8.50;;;7.70;;
66402;SDS011;53212;52.112;5.144;2024-02-14T06:02:39;9.50;;;8.60;;
66402;SDS011;53212;52.112;5.144;2024-02-14T06:05:06;9.30;;;7.90;;
66402;SDS011;53212;52.112;5.144;2024-02-14T06:07:39;9.70;;;8.80;;
66402;SDS011;53212;52.112;5.144;2024-02-14T06:10:09;9.00;;;8.00;;
66402;SDS011;53212;52.112;5.144;2024-02-14T06:12:35;9.00;;;8.30;;
66402;SDS011;53212;52.112;5.144;2024-02-14T06:15:01;9.10;;;8.30;;
66402;SDS011;53212;52.112;5.144;2024-02-14T06:17:27;8.60;;;7.80;;
66402;SDS011;53212;52.112;5.144;2024-02-14T06:19:53;8.30;;;7.50;;
66402;SDS011;53212;52.112;5.144;2024-02-14T06:22:20;9.50;;;8.40;;
66402;SDS011;53212;52.112;5.144;2024-02-14T06:24:46;8.00;;;7.40;;
66402;SDS011;53212;52.112;5.144;2024-02-14T06:27:16;8.30;;;7.60;;
66402;SDS011;53212;52.112;5.144;2024-02-14T06:29:43;8.70;;;7.80;;
66402;SDS011;53212;52.112;5.144;2024-02-14T06:32:11;8.20;;;7.50;;
66402;SDS011;53212;52.112;5.144;2024-02-14T06:34:38;8.70;;;7.90;;
66402;SDS011;53212;52.112;5.144;2024-02-14T06:37:03;9.30;;;8.30;;
66402;SDS011;53212;52.112;5.144;2024-02-14T06:39:29;9.30;;;8.40;;
66402;SDS011;53212;52.112;5.144;2024-02-14T06:41:55;9.30;;;8.40;;
66402;SDS011;53212;52.112;5.144;2024-02-14T06:44:23;9.10;;;8.20;;
66402;SDS011;53212;52.112;5.144;2024-02-14T06:46:49;9.50;;;8.60;;
66402;SDS011;53212;52.112;5.144;2024-02-14T06:49:16;9.60;;;8.70;;
66402;SDS011;53212;52.112;5.144;2024-02-14T06:51:42;10.90;;;8.90;;
66402;SDS011;53212;52.112;5.144;2024-02-14T06:54:07;10.60;;;9.20;;
66402;SDS011;53212;52.112;5.144;2024-02-14T06:56:33;13.60;;;9.50;;
66402;SDS011;53212;52.112;5.144;2024-02-14T06:58:59;10.50;;;9.20;;
66402;SDS011;53212;52.112;5.144;2024-02-14T07:01:29;12.50;;;10.20;;
66402;SDS011;53212;52.112;5.144;2024-02-14T07:03:55;11.40;;;9.80;;
66402;SDS011;53212;52.112;5.144;2024-02-14T07:06:20;12.30;;;10.90;;
66402;SDS011;53212;52.112;5.144;2024-02-14T07:08:46;11.30;;;10.10;;
66402;SDS011;53212;52.112;5.144;2024-02-14T07:11:13;12.30;;;10.00;;
66402;SDS011;53212;52.112;5.144;2024-02-14T07:13:38;12.60;;;10.20;;
66402;SDS011;53212;52.112;5.144;2024-02-14T07:16:04;11.20;;;9.40;;
66402;SDS011;53212;52.112;5.144;2024-02-14T07:18:30;11.30;;;10.00;;
66402;SDS011;53212;52.112;5.144;2024-02-14T07:20:55;13.40;;;10.70;;
66402;SDS011;53212;52.112;5.144;2024-02-14T07:23:21;11.40;;;10.00;;
66402;SDS011;53212;52.112;5.144;2024-02-14T07:25:47;12.90;;;9.90;;
66402;SDS011;53212;52.112;5.144;2024-02-14T07:28:12;11.40;;;9.60;;
66402;SDS011;53212;52.112;5.144;2024-02-14T07:30:38;12.30;;;10.60;;
66402;SDS011;53212;52.112;5.144;2024-02-14T07:33:04;11.20;;;10.00;;
66402;SDS011;53212;52.112;5.144;2024-02-14T07:35:29;12.60;;;10.40;;
66402;SDS011;53212;52.112;5.144;2024-02-14T07:37:55;14.30;;;10.30;;
66402;SDS011;53212;52.112;5.144;2024-02-14T07:40:21;11.00;;;9.90;;
66402;SDS011;53212;52.112;5.144;2024-02-14T07:42:48;11.90;;;10.30;;
66402;SDS011;53212;52.112;5.144;2024-02-14T07:45:14;10.90;;;9.60;;
66402;SDS011;53212;52.112;5.144;2024-02-14T07:47:40;11.30;;;9.50;;
66402;SDS011;53212;52.112;5.144;2024-02-14T07:50:09;10.90;;;9.30;;
66402;SDS011;53212;52.112;5.144;2024-02-14T07:52:34;10.60;;;8.70;;
66402;SDS011;53212;52.112;5.144;2024-02-14T07:55:01;9.00;;;7.80;;
66402;SDS011;53212;52.112;5.144;2024-02-14T07:57:27;9.70;;;8.80;;
66402;SDS011;53212;52.112;5.144;2024-02-14T07:59:52;9.40;;;8.30;;
66402;SDS011;53212;52.112;5.144;2024-02-14T08:02:19;11.20;;;9.70;;
66402;SDS011;53212;52.112;5.144;2024-02-14T08:04:45;10.30;;;8.00;;
66402;SDS011;53212;52.112;5.144;2024-02-14T08:07:10;9.40;;;8.20;;
66402;SDS011;53212;52.112;5.144;2024-02-14T08:09:36;8.50;;;7.80;;
66402;SDS011;53212;52.112;5.144;2024-02-14T08:12:04;8.60;;;7.80;;
66402;SDS011;53212;52.112;5.144;2024-02-14T08:14:31;9.20;;;8.30;;
66402;SDS011;53212;52.112;5.144;2024-02-14T08:16:57;8.90;;;8.10;;
66402;SDS011;53212;52.112;5.144;2024-02-14T08:19:23;9.70;;;8.10;;
66402;SDS011;53212;52.112;5.144;2024-02-14T08:21:48;8.60;;;7.80;;
66402;SDS011;53212;52.112;5.144;2024-02-14T08:24:14;9.10;;;8.20;;
66402;SDS011;53212;52.112;5.144;2024-02-14T08:26:39;9.00;;;8.20;;
66402;SDS011;53212;52.112;5.144;2024-02-14T08:29:05;8.70;;;7.90;;
66402;SDS011;53212;52.112;5.144;2024-02-14T08:31:30;8.10;;;7.50;;
66402;SDS011;53212;52.112;5.144;2024-02-14T08:33:57;7.90;;;7.20;;
66402;SDS011;53212;52.112;5.144;2024-02-14T08:36:24;9.00;;;6.80;;
66402;SDS011;53212;52.112;5.144;2024-02-14T08:38:50;8.30;;;6.50;;
66402;SDS011;53212;52.112;5.144;2024-02-14T08:41:15;7.20;;;6.50;;
66402;SDS011;53212;52.112;5.144;2024-02-14T08:43:43;8.80;;;6.20;;
66402;SDS011;53212;52.112;5.144;2024-02-14T08:46:10;7.10;;;6.40;;
66402;SDS011;53212;52.112;5.144;2024-02-14T08:48:37;7.90;;;6.30;;
66402;SDS011;53212;52.112;5.144;2024-02-14T08:51:07;6.90;;;6.20;;
66402;SDS011;53212;52.112;5.144;2024-02-14T08:53:35;7.00;;;6.30;;
66402;SDS011;53212;52.112;5.144;2024-02-14T08:56:01;6.30;;;5.70;;
66402;SDS011;53212;52.112;5.144;2024-02-14T08:58:27;5.90;;;5.40;;
66402;SDS011;53212;52.112;5.144;2024-02-14T09:00:52;5.80;;;5.30;;
66402;SDS011;53212;52.112;5.144;2024-02-14T09:03:19;7.20;;;5.90;;
66402;SDS011;53212;52.112;5.144;2024-02-14T09:05:45;6.60;;;6.10;;
66402;SDS011;53212;52.112;5.144;2024-02-14T09:08:12;7.50;;;6.00;;
66402;SDS011;53212;52.112;5.144;2024-02-14T09:10:38;6.60;;;6.00;;
66402;SDS011;53212;52.112;5.144;2024-02-14T09:13:04;6.90;;;6.30;;
66402;SDS011;53212;52.112;5.144;2024-02-14T09:15:32;6.00;;;5.50;;
66402;SDS011;53212;52.112;5.144;2024-02-14T09:17:58;6.80;;;6.20;;
66402;SDS011;53212;52.112;5.144;2024-02-14T09:20:25;6.00;;;5.60;;
66402;SDS011;53212;52.112;5.144;2024-02-14T09:22:51;6.50;;;5.90;;
66402;SDS011;53212;52.112;5.144;2024-02-14T09:25:16;6.80;;;6.20;;
66402;SDS011;53212;52.112;5.144;2024-02-14T09:27:42;6.70;;;5.90;;
66402;SDS011;53212;52.112;5.144;2024-02-14T09:30:09;6.00;;;5.50;;
66402;SDS011;53212;52.112;5.144;2024-02-14T09:32:35;7.00;;;6.20;;
66402;SDS011;53212;52.112;5.144;2024-02-14T09:35:00;6.70;;;6.20;;
66402;SDS011;53212;52.112;5.144;2024-02-14T09:37:29;7.30;;;6.60;;
66402;SDS011;53212;52.112;5.144;2024-02-14T09:39:54;8.40;;;7.50;;
66402;SDS011;53212;52.112;5.144;2024-02-14T09:42:26;9.30;;;7.40;;
66402;SDS011;53212;52.112;5.144;2024-02-14T09:44:59;8.00;;;7.20;;
66402;SDS011;53212;52.112;5.144;2024-02-14T09:47:25;10.00;;;7.30;;
66402;SDS011;53212;52.112;5.144;2024-02-14T09:49:55;9.70;;;7.70;;
66402;SDS011;53212;52.112;5.144;2024-02-14T09:52:22;8.80;;;7.90;;
66402;SDS011;53212;52.112;5.144;2024-02-14T09:54:49;8.60;;;7.80;;
66402;SDS011;53212;52.112;5.144;2024-02-14T09:57:16;12.70;;;9.10;;
66402;SDS011;53212;52.112;5.144;2024-02-14T09:59:42;11.40;;;9.00;;
66402;SDS011;53212;52.112;5.144;2024-02-14T10:02:09;9.90;;;8.90;;
66402;SDS011;53212;52.112;5.144;2024-02-14T10:04:36;11.20;;;8.60;;
66402;SDS011;53212;52.112;5.144;2024-02-14T10:07:04;9.20;;;8.30;;
66402;SDS011;53212;52.112;5.144;2024-02-14T10:09:30;8.60;;;7.80;;
66402;SDS011;53212;52.112;5.144;2024-02-14T10:11:55;7.80;;;7.10;;
66402;SDS011;53212;52.112;5.144;2024-02-14T10:14:23;8.00;;;7.30;;
66402;SDS011;53212;52.112;5.144;2024-02-14T10:16:49;9.50;;;7.10;;
66402;SDS011;53212;52.112;5.144;2024-02-14T10:19:15;7.90;;;7.20;;
66402;SDS011;53212;52.112;5.144;2024-02-14T10:21:42;7.70;;;6.80;;
66402;SDS011;53212;52.112;5.144;2024-02-14T10:24:08;7.50;;;6.70;;
66402;SDS011;53212;52.112;5.144;2024-02-14T10:26:37;6.70;;;6.10;;
66402;SDS011;53212;52.112;5.144;2024-02-14T10:29:03;7.20;;;6.50;;
66402;SDS011;53212;52.112;5.144;2024-02-14T10:31:28;6.30;;;5.80;;
66402;SDS011;53212;52.112;5.144;2024-02-14T10:33:55;7.00;;;6.20;;
66402;SDS011;53212;52.112;5.144;2024-02-14T10:36:21;6.30;;;5.70;;
66402;SDS011;53212;52.112;5.144;2024-02-14T10:38:48;7.70;;;5.70;;
66402;SDS011;53212;52.112;5.144;2024-02-14T10:41:16;6.00;;;5.40;;
66402;SDS011;53212;52.112;5.144;2024-02-14T10:43:42;6.40;;;5.30;;
66402;SDS011;53212;52.112;5.144;2024-02-14T10:46:21;5.90;;;5.50;;
66402;SDS011;53212;52.112;5.144;2024-02-14T10:48:52;5.60;;;5.10;;
66402;SDS011;53212;52.112;5.144;2024-02-14T10:51:19;6.50;;;5.70;;
66402;SDS011;53212;52.112;5.144;2024-02-14T10:53:46;6.00;;;5.50;;
66402;SDS011;53212;52.112;5.144;2024-02-14T10:56:18;5.40;;;4.90;;
66402;SDS011;53212;52.112;5.144;2024-02-14T10:58:48;5.20;;;4.80;;
66402;SDS011;53212;52.112;5.144;2024-02-14T11:01:14;5.50;;;5.00;;
66402;SDS011;53212;52.112;5.144;2024-02-14T11:03:42;4.70;;;4.30;;
66402;SDS011;53212;52.112;5.144;2024-02-14T11:06:15;4.40;;;4.00;;
66402;SDS011;53212;52.112;5.144;2024-02-14T11:11:28;4.10;;;3.70;;
66402;SDS011;53212;52.112;5.144;2024-02-14T11:13:56;4.70;;;4.10;;
66402;SDS011;53212;52.112;5.144;2024-02-14T11:16:26;4.10;;;3.80;;
66402;SDS011;53212;52.112;5.144;2024-02-14T11:19:13;4.70;;;4.30;;
66402;SDS011;53212;52.112;5.144;2024-02-14T11:21:42;4.70;;;4.30;;
66402;SDS011;53212;52.112;5.144;2024-02-14T11:24:10;4.30;;;4.00;;
66402;SDS011;53212;52.112;5.144;2024-02-14T11:26:49;5.00;;;4.50;;
66402;SDS011;53212;52.112;5.144;2024-02-14T11:29:20;4.90;;;4.50;;
66402;SDS011;53212;52.112;5.144;2024-02-14T11:31:47;4.80;;;4.30;;
66402;SDS011;53212;52.112;5.144;2024-02-14T11:34:13;4.40;;;4.00;;
66402;SDS011;53212;52.112;5.144;2024-02-14T11:36:41;6.10;;;4.40;;
66402;SDS011;53212;52.112;5.144;2024-02-14T11:39:08;5.00;;;4.60;;
66402;SDS011;53212;52.112;5.144;2024-02-14T11:41:34;4.80;;;4.40;;
66402;SDS011;53212;52.112;5.144;2024-02-14T11:44:04;5.00;;;4.50;;
66402;SDS011;53212;52.112;5.144;2024-02-14T11:46:33;6.50;;;4.40;;
66402;SDS011;53212;52.112;5.144;2024-02-14T11:49:04;4.90;;;4.50;;
66402;SDS011;53212;52.112;5.144;2024-02-14T11:51:32;5.20;;;4.70;;
66402;SDS011;53212;52.112;5.144;2024-02-14T11:54:00;5.20;;;4.70;;
66402;SDS011;53212;52.112;5.144;2024-02-14T11:56:33;5.50;;;5.00;;
66402;SDS011;53212;52.112;5.144;2024-02-14T11:59:00;5.50;;;5.00;;
66402;SDS011;53212;52.112;5.144;2024-02-14T12:01:33;5.20;;;4.80;;
66402;SDS011;53212;52.112;5.144;2024-02-14T12:04:01;5.60;;;5.10;;
66402;SDS011;53212;52.112;5.144;2024-02-14T12:06:29;5.70;;;5.20;;
66402;SDS011;53212;52.112;5.144;2024-02-14T12:11:39;5.50;;;5.00;;
66402;SDS011;53212;52.112;5.144;2024-02-14T12:14:09;6.30;;;5.50;;
66402;SDS011;53212;52.112;5.144;2024-02-14T12:16:35;5.40;;;4.90;;
66402;SDS011;53212;52.112;5.144;2024-02-14T12:19:14;5.70;;;5.20;;
66402;SDS011;53212;52.112;5.144;2024-02-14T12:21:41;4.80;;;4.40;;
66402;SDS011;53212;52.112;5.144;2024-02-14T12:24:11;7.10;;;4.80;;
66402;SDS011;53212;52.112;5.144;2024-02-14T12:26:39;5.00;;;4.60;;
66402;SDS011;53212;52.112;5.144;2024-02-14T12:29:06;4.70;;;4.30;;
66402;SDS011;53212;52.112;5.144;2024-02-14T12:31:34;4.70;;;4.30;;
66402;SDS011;53212;52.112;5.144;2024-02-14T12:34:03;4.70;;;4.40;;
66402;SDS011;53212;52.112;5.144;2024-02-14T12:36:33;4.20;;;4.00;;
66402;SDS011;53212;52.112;5.144;2024-02-14T12:38:59;4.50;;;4.20;;
66402;SDS011;53212;52.112;5.144;2024-02-14T12:41:29;4.40;;;4.00;;
66402;SDS011;53212;52.112;5.144;2024-02-14T12:43:56;4.50;;;4.10;;
66402;SDS011;53212;52.112;5.144;2024-02-14T12:46:22;4.20;;;4.00;;
66402;SDS011;53212;52.112;5.144;2024-02-14T12:48:48;3.80;;;3.50;;
66402;SDS011;53212;52.112;5.144;2024-02-14T12:51:16;4.10;;;3.70;;
66402;SDS011;53212;52.112;5.144;2024-02-14T12:53:42;4.70;;;3.50;;
66402;SDS011;53212;52.112;5.144;2024-02-14T12:56:08;4.60;;;4.00;;
66402;SDS011;53212;52.112;5.144;2024-02-14T12:58:33;4.90;;;3.80;;
66402;SDS011;53212;52.112;5.144;2024-02-14T13:00:59;3.80;;;3.60;;
66402;SDS011;53212;52.112;5.144;2024-02-14T13:03:27;4.40;;;4.00;;
66402;SDS011;53212;52.112;5.144;2024-02-14T13:05:55;4.00;;;3.70;;
66402;SDS011;53212;52.112;5.144;2024-02-14T13:08:20;4.20;;;3.80;;
66402;SDS011;53212;52.112;5.144;2024-02-14T13:10:46;4.00;;;3.70;;
66402;SDS011;53212;52.112;5.144;2024-02-14T13:13:12;3.70;;;3.50;;
66402;SDS011;53212;52.112;5.144;2024-02-14T13:15:39;3.70;;;3.40;;
66402;SDS011;53212;52.112;5.144;2024-02-14T13:18:06;3.60;;;3.30;;
66402;SDS011;53212;52.112;5.144;2024-02-14T13:20:31;3.70;;;3.40;;
66402;SDS011;53212;52.112;5.144;2024-02-14T13:22:57;3.50;;;3.30;;
66402;SDS011;53212;52.112;5.144;2024-02-14T13:25:23;3.80;;;3.20;;
66402;SDS011;53212;52.112;5.144;2024-02-14T13:27:49;3.60;;;3.30;;
66402;SDS011;53212;52.112;5.144;2024-02-14T13:30:14;3.30;;;3.10;;
66402;SDS011;53212;52.112;5.144;2024-02-14T13:32:40;3.60;;;3.30;;
66402;SDS011;53212;52.112;5.144;2024-02-14T13:35:05;3.50;;;3.30;;
66402;SDS011;53212;52.112;5.144;2024-02-14T13:37:33;3.50;;;3.20;;
66402;SDS011;53212;52.112;5.144;2024-02-14T13:39:59;2.60;;;2.50;;
66402;SDS011;53212;52.112;5.144;2024-02-14T13:42:24;3.10;;;2.90;;
66402;SDS011;53212;52.112;5.144;2024-02-14T13:44:50;2.90;;;2.70;;
66402;SDS011;53212;52.112;5.144;2024-02-14T13:47:18;3.00;;;2.80;;
66402;SDS011;53212;52.112;5.144;2024-02-14T13:49:44;3.40;;;3.10;;
66402;SDS011;53212;52.112;5.144;2024-02-14T13:52:10;3.80;;;3.40;;
66402;SDS011;53212;52.112;5.144;2024-02-14T13:54:35;4.00;;;3.60;;
66402;SDS011;53212;52.112;5.144;2024-02-14T13:57:01;5.80;;;3.90;;
66402;SDS011;53212;52.112;5.144;2024-02-14T13:59:27;3.40;;;3.20;;
66402;SDS011;53212;52.112;5.144;2024-02-14T14:01:53;3.20;;;3.00;;
66402;SDS011;53212;52.112;5.144;2024-02-14T14:04:20;3.50;;;3.20;;
66402;SDS011;53212;52.112;5.144;2024-02-14T14:06:46;3.00;;;2.80;;
66402;SDS011;53212;52.112;5.144;2024-02-14T14:09:13;4.00;;;3.70;;
66402;SDS011;53212;52.112;5.144;2024-02-14T14:11:38;3.60;;;3.30;;
66402;SDS011;53212;52.112;5.144;2024-02-14T14:14:05;3.40;;;3.20;;
66402;SDS011;53212;52.112;5.144;2024-02-14T14:16:31;4.20;;;3.20;;
66402;SDS011;53212;52.112;5.144;2024-02-14T14:18:58;3.70;;;3.30;;
66402;SDS011;53212;52.112;5.144;2024-02-14T14:21:24;3.90;;;3.60;;
66402;SDS011;53212;52.112;5.144;2024-02-14T14:23:50;3.40;;;3.20;;
66402;SDS011;53212;52.112;5.144;2024-02-14T14:26:15;3.50;;;3.10;;
66402;SDS011;53212;52.112;5.144;2024-02-14T14:28:43;3.10;;;2.90;;
66402;SDS011;53212;52.112;5.144;2024-02-14T14:31:08;2.60;;;2.40;;
66402;SDS011;53212;52.112;5.144;2024-02-14T14:33:36;2.70;;;2.50;;
66402;SDS011;53212;52.112;5.144;2024-02-14T14:36:04;2.80;;;2.60;;
66402;SDS011;53212;52.112;5.144;2024-02-14T14:38:30;2.30;;;2.20;;
66402;SDS011;53212;52.112;5.144;2024-02-14T14:40:55;2.90;;;2.40;;
66402;SDS011;53212;52.112;5.144;2024-02-14T14:43:21;2.40;;;2.20;;
66402;SDS011;53212;52.112;5.144;2024-02-14T14:45:47;2.00;;;1.90;;